sensor_id;sensor_type;location;lat;lon;timestamp;pressure;altitude;pressure_sealevel;temperature;humidity
39455;BME280;25155;41.890;23.446;2022-09-13T00:02:01;91714.09;;;12.35;55.57
39455;BME280;25155;41.890;23.446;2022-09-13T00:04:28;91704.72;;;12.29;55.91
39455;BME280;25155;41.890;23.446;2022-09-13T00:06:56;91708.91;;;12.30;56.05
39455;BME280;25155;41.890;23.446;2022-09-13T00:09:23;91711.59;;;12.25;56.56
39455;BME280;25155;41.890;23.446;2022-09-13T00:11:51;91706.22;;;12.11;56.44
39455;BME280;25155;41.890;23.446;2022-09-13T00:14:18;91709.22;;;11.99;56.67
39455;BME280;25155;41.890;23.446;2022-09-13T00:16:45;91703.78;;;11.91;56.81
39455;BME280;25155;41.890;23.446;2022-09-13T00:19:14;91699.94;;;11.83;56.97
39455;BME280;25155;41.890;23.446;2022-09-13T00:21:41;91696.09;;;11.75;57.01
39455;BME280;25155;41.890;23.446;2022-09-13T00:24:08;91701.06;;;11.77;56.79
39455;BME280;25155;41.890;23.446;2022-09-13T00:26:35;91701.81;;;11.77;57.37
39455;BME280;25155;41.890;23.446;2022-09-13T00:29:03;91692.72;;;11.70;57.46
39455;BME280;25155;41.890;23.446;2022-09-13T00:31:30;91691.97;;;11.69;57.29
39455;BME280;25155;41.890;23.446;2022-09-13T00:33:58;91697.47;;;11.68;57.11
39455;BME280;25155;41.890;23.446;2022-09-13T00:36:27;91696.22;;;11.60;57.85
39455;BME280;25155;41.890;23.446;2022-09-13T00:38:54;91692.31;;;11.57;57.86
39455;BME280;25155;41.890;23.446;2022-09-13T00:41:21;91698.06;;;11.59;57.38
39455;BME280;25155;41.890;23.446;2022-09-13T00:43:50;91698.31;;;11.58;57.24
39455;BME280;25155;41.890;23.446;2022-09-13T00:46:27;91702.28;;;11.55;57.38
39455;BME280;25155;41.890;23.446;2022-09-13T00:48:58;91687.97;;;11.48;57.06
39455;BME280;25155;41.890;23.446;2022-09-13T00:51:28;91702.00;;;11.22;57.74
39455;BME280;25155;41.890;23.446;2022-09-13T00:53:57;91699.50;;;11.41;57.39
39455;BME280;25155;41.890;23.446;2022-09-13T00:56:30;91689.84;;;11.42;57.47
39455;BME280;25155;41.890;23.446;2022-09-13T00:59:01;91697.59;;;11.52;58.03
39455;BME280;25155;41.890;23.446;2022-09-13T01:01:34;91701.84;;;11.43;58.06
39455;BME280;25155;41.890;23.446;2022-09-13T01:04:03;91706.00;;;11.44;58.05
39455;BME280;25155;41.890;23.446;2022-09-13T01:06:34;91696.38;;;11.39;58.24
39455;BME280;25155;41.890;23.446;2022-09-13T01:09:02;91697.50;;;10.88;59.66
39455;BME280;25155;41.890;23.446;2022-09-13T01:11:43;91690.75;;;10.82;59.75
39455;BME280;25155;41.890;23.446;2022-09-13T01:14:12;91691.81;;;10.81;59.66
39455;BME280;25155;41.890;23.446;2022-09-13T01:16:40;91682.09;;;10.87;59.56
39455;BME280;25155;41.890;23.446;2022-09-13T01:19:07;91689.13;;;10.92;59.58
39455;BME280;25155;41.890;23.446;2022-09-13T01:24:54;91683.47;;;10.79;60.55
39455;BME280;25155;41.890;23.446;2022-09-13T01:27:31;91660.31;;;10.67;60.51
39455;BME280;25155;41.890;23.446;2022-09-13T01:30:09;91674.34;;;10.77;59.81
39455;BME280;25155;41.890;23.446;2022-09-13T01:33:07;91678.56;;;10.73;59.62
39455;BME280;25155;41.890;23.446;2022-09-13T01:35:46;91663.66;;;10.73;59.53
39455;BME280;25155;41.890;23.446;2022-09-13T01:38:28;91665.50;;;10.73;59.31
39455;BME280;25155;41.890;23.446;2022-09-13T01:41:08;91634.03;;;10.53;58.95
39455;BME280;25155;41.890;23.446;2022-09-13T01:43:51;91661.13;;;10.63;58.86
39455;BME280;25155;41.890;23.446;2022-09-13T01:46:27;91668.13;;;10.73;59.10
39455;BME280;25155;41.890;23.446;2022-09-13T01:49:03;91660.03;;;10.74;58.80
39455;BME280;25155;41.890;23.446;2022-09-13T01:51:37;91665.25;;;10.74;59.19
39455;BME280;25155;41.890;23.446;2022-09-13T01:54:16;91669.19;;;10.66;59.25
39455;BME280;25155;41.890;23.446;2022-09-13T01:56:50;91663.22;;;10.56;58.80
39455;BME280;25155;41.890;23.446;2022-09-13T01:59:23;91672.16;;;10.49;59.12
39455;BME280;25155;41.890;23.446;2022-09-13T02:01:59;91671.66;;;10.37;59.54
39455;BME280;25155;41.890;23.446;2022-09-13T02:04:32;91676.63;;;10.33;59.30
39455;BME280;25155;41.890;23.446;2022-09-13T02:07:07;91675.06;;;10.32;59.68
39455;BME280;25155;41.890;23.446;2022-09-13T02:09:41;91670.66;;;10.33;59.96
39455;BME280;25155;41.890;23.446;2022-09-13T02:12:14;91653.97;;;10.24;59.98
39455;BME280;25155;41.890;23.446;2022-09-13T02:14:50;91646.44;;;10.17;60.19
39455;BME280;25155;41.890;23.446;2022-09-13T02:17:23;91664.91;;;10.21;59.72
39455;BME280;25155;41.890;23.446;2022-09-13T02:19:54;91673.81;;;10.14;60.72
39455;BME280;25155;41.890;23.446;2022-09-13T02:22:27;91663.13;;;10.11;60.28
39455;BME280;25155;41.890;23.446;2022-09-13T02:25:02;91663.66;;;10.13;60.14
39455;BME280;25155;41.890;23.446;2022-09-13T02:27:33;91664.41;;;10.19;60.44
39455;BME280;25155;41.890;23.446;2022-09-13T02:30:03;91666.25;;;10.08;61.37
39455;BME280;25155;41.890;23.446;2022-09-13T02:32:36;91663.97;;;9.91;61.23
39455;BME280;25155;41.890;23.446;2022-09-13T02:35:09;91681.91;;;9.97;61.17
39455;BME280;25155;41.890;23.446;2022-09-13T02:37:39;91682.47;;;10.00;61.11
39455;BME280;25155;41.890;23.446;2022-09-13T02:40:14;91671.25;;;9.99;61.46
39455;BME280;25155;41.890;23.446;2022-09-13T02:42:51;91672.03;;;10.00;60.92
39455;BME280;25155;41.890;23.446;2022-09-13T02:45:19;91684.09;;;9.70;61.43
39455;BME280;25155;41.890;23.446;2022-09-13T02:47:55;91660.63;;;9.80;60.74
39455;BME280;25155;41.890;23.446;2022-09-13T02:50:33;91673.31;;;10.02;61.55
39455;BME280;25155;41.890;23.446;2022-09-13T02:53:10;91676.97;;;9.96;61.35
39455;BME280;25155;41.890;23.446;2022-09-13T02:55:45;91672.28;;;9.93;61.38
39455;BME280;25155;41.890;23.446;2022-09-13T02:58:20;91670.50;;;9.83;61.07
39455;BME280;25155;41.890;23.446;2022-09-13T03:00:49;91675.72;;;9.88;60.84
39455;BME280;25155;41.890;23.446;2022-09-13T03:03:17;91676.22;;;9.85;61.13
39455;BME280;25155;41.890;23.446;2022-09-13T03:05:46;91642.13;;;9.66;60.91
39455;BME280;25155;41.890;23.446;2022-09-13T03:08:13;91666.09;;;9.78;60.89
39455;BME280;25155;41.890;23.446;2022-09-13T03:10:53;91676.25;;;9.59;61.79
39455;BME280;25155;41.890;23.446;2022-09-13T03:13:35;91688.50;;;9.54;61.45
39455;BME280;25155;41.890;23.446;2022-09-13T03:16:11;91679.66;;;9.24;61.84
39455;BME280;25155;41.890;23.446;2022-09-13T03:19:02;91684.09;;;9.39;62.00
39455;BME280;25155;41.890;23.446;2022-09-13T03:21:45;91685.38;;;9.41;61.61
39455;BME280;25155;41.890;23.446;2022-09-13T03:24:22;91678.13;;;9.38;61.60
39455;BME280;25155;41.890;23.446;2022-09-13T03:27:02;91689.56;;;9.48;61.59
39455;BME280;25155;41.890;23.446;2022-09-13T03:29:39;91692.16;;;9.48;61.46
39455;BME280;25155;41.890;23.446;2022-09-13T03:32:17;91690.06;;;9.50;61.83
39455;BME280;25155;41.890;23.446;2022-09-13T03:34:52;91698.41;;;9.52;61.63
39455;BME280;25155;41.890;23.446;2022-09-13T03:37:26;91695.00;;;9.56;62.10
39455;BME280;25155;41.890;23.446;2022-09-13T03:39:58;91689.28;;;9.44;62.21
39455;BME280;25155;41.890;23.446;2022-09-13T03:42:31;91697.38;;;9.37;62.08
39455;BME280;25155;41.890;23.446;2022-09-13T03:45:01;91701.53;;;9.44;62.46
39455;BME280;25155;41.890;23.446;2022-09-13T03:47:31;91702.84;;;9.41;62.19
39455;BME280;25155;41.890;23.446;2022-09-13T03:50:03;91713.50;;;9.39;61.99
39455;BME280;25155;41.890;23.446;2022-09-13T03:52:33;91702.31;;;9.44;62.10
39455;BME280;25155;41.890;23.446;2022-09-13T03:55:01;91704.16;;;9.44;62.36
39455;BME280;25155;41.890;23.446;2022-09-13T03:57:29;91710.88;;;9.50;62.38
39455;BME280;25155;41.890;23.446;2022-09-13T03:59:56;91709.88;;;9.46;62.58
39455;BME280;25155;41.890;23.446;2022-09-13T04:02:25;91697.38;;;9.37;62.21
39455;BME280;25155;41.890;23.446;2022-09-13T04:04:52;91696.34;;;9.38;62.69
39455;BME280;25155;41.890;23.446;2022-09-13T04:07:22;91707.25;;;9.46;62.76
39455;BME280;25155;41.890;23.446;2022-09-13T04:09:50;91723.66;;;9.46;62.91
39455;BME280;25155;41.890;23.446;2022-09-13T04:12:17;91722.88;;;9.40;63.74
39455;BME280;25155;41.890;23.446;2022-09-13T04:14:45;91717.91;;;9.13;64.20
39455;BME280;25155;41.890;23.446;2022-09-13T04:17:12;91724.41;;;9.11;63.97
39455;BME280;25155;41.890;23.446;2022-09-13T04:19:41;91721.31;;;9.14;63.76
39455;BME280;25155;41.890;23.446;2022-09-13T04:22:09;91713.47;;;9.03;65.35
39455;BME280;25155;41.890;23.446;2022-09-13T04:24:38;91716.56;;;8.95;65.71
39455;BME280;25155;41.890;23.446;2022-09-13T04:27:05;91715.28;;;8.98;65.47
39455;BME280;25155;41.890;23.446;2022-09-13T04:29:33;91715.78;;;8.95;66.33
39455;BME280;25155;41.890;23.446;2022-09-13T04:32:00;91719.97;;;8.91;66.44
39455;BME280;25155;41.890;23.446;2022-09-13T04:34:28;91713.97;;;8.90;66.27
39455;BME280;25155;41.890;23.446;2022-09-13T04:36:55;91713.69;;;8.92;66.58
39455;BME280;25155;41.890;23.446;2022-09-13T04:39:23;91718.66;;;8.98;66.09
39455;BME280;25155;41.890;23.446;2022-09-13T04:41:51;91714.53;;;9.08;66.00
39455;BME280;25155;41.890;23.446;2022-09-13T04:44:20;91718.97;;;9.17;65.29
39455;BME280;25155;41.890;23.446;2022-09-13T04:46:52;91722.59;;;9.27;65.37
39455;BME280;25155;41.890;23.446;2022-09-13T04:49:20;91712.69;;;9.03;65.87
39455;BME280;25155;41.890;23.446;2022-09-13T04:51:47;91718.19;;;9.32;65.56
39455;BME280;25155;41.890;23.446;2022-09-13T04:54:15;91715.06;;;9.46;65.02
39455;BME280;25155;41.890;23.446;2022-09-13T04:56:43;91711.94;;;9.54;64.80
39455;BME280;25155;41.890;23.446;2022-09-13T04:59:13;91716.13;;;9.65;64.90
39455;BME280;25155;41.890;23.446;2022-09-13T05:01:41;91714.53;;;9.69;65.59
39455;BME280;25155;41.890;23.446;2022-09-13T05:04:10;91716.63;;;9.72;65.34
39455;BME280;25155;41.890;23.446;2022-09-13T05:06:37;91716.09;;;9.81;64.76
39455;BME280;25155;41.890;23.446;2022-09-13T05:09:04;91720.50;;;9.90;65.11
39455;BME280;25155;41.890;23.446;2022-09-13T05:11:32;91716.59;;;9.98;65.11
39455;BME280;25155;41.890;23.446;2022-09-13T05:14:00;91728.03;;;10.07;65.20
39455;BME280;25155;41.890;23.446;2022-09-13T05:16:30;91712.38;;;10.12;64.49
39455;BME280;25155;41.890;23.446;2022-09-13T05:18:57;91711.03;;;10.25;64.34
39455;BME280;25155;41.890;23.446;2022-09-13T05:21:25;91716.50;;;10.29;65.23
39455;BME280;25155;41.890;23.446;2022-09-13T05:23:54;91709.19;;;10.31;65.04
39455;BME280;25155;41.890;23.446;2022-09-13T05:26:23;91715.19;;;10.42;64.44
39455;BME280;25155;41.890;23.446;2022-09-13T05:28:50;91714.34;;;10.57;64.04
39455;BME280;25155;41.890;23.446;2022-09-13T05:31:19;91718.47;;;10.68;63.91
39455;BME280;25155;41.890;23.446;2022-09-13T05:33:53;91696.56;;;10.64;63.95
39455;BME280;25155;41.890;23.446;2022-09-13T05:36:21;91710.84;;;10.82;63.52
39455;BME280;25155;41.890;23.446;2022-09-13T05:38:48;91719.63;;;10.96;63.64
39455;BME280;25155;41.890;23.446;2022-09-13T05:41:16;91713.59;;;11.06;63.55
39455;BME280;25155;41.890;23.446;2022-09-13T05:43:44;91718.22;;;11.14;63.35
39455;BME280;25155;41.890;23.446;2022-09-13T05:46:14;91711.38;;;11.23;63.67
39455;BME280;25155;41.890;23.446;2022-09-13T05:48:42;91709.25;;;11.31;63.51
39455;BME280;25155;41.890;23.446;2022-09-13T05:51:13;91711.81;;;11.36;63.53
39455;BME280;25155;41.890;23.446;2022-09-13T05:53:42;91708.91;;;11.42;63.49
39455;BME280;25155;41.890;23.446;2022-09-13T05:56:11;91705.16;;;11.54;63.19
39455;BME280;25155;41.890;23.446;2022-09-13T05:58:40;91700.63;;;11.64;63.28
39455;BME280;25155;41.890;23.446;2022-09-13T06:01:07;91701.09;;;11.72;62.79
39455;BME280;25155;41.890;23.446;2022-09-13T06:03:35;91704.66;;;11.81;63.10
39455;BME280;25155;41.890;23.446;2022-09-13T06:06:04;91703.56;;;11.87;62.65
39455;BME280;25155;41.890;23.446;2022-09-13T06:08:34;91699.88;;;11.93;62.78
39455;BME280;25155;41.890;23.446;2022-09-13T06:11:03;91699.78;;;12.04;62.51
39455;BME280;25155;41.890;23.446;2022-09-13T06:13:31;91702.00;;;12.15;62.01
39455;BME280;25155;41.890;23.446;2022-09-13T06:15:59;91699.56;;;12.24;61.86
39455;BME280;25155;41.890;23.446;2022-09-13T06:18:27;91696.13;;;12.29;61.55
39455;BME280;25155;41.890;23.446;2022-09-13T06:20:57;91705.69;;;12.39;61.06
39455;BME280;25155;41.890;23.446;2022-09-13T06:23:25;91706.34;;;12.49;61.31
39455;BME280;25155;41.890;23.446;2022-09-13T06:26:04;91698.72;;;12.53;60.75
39455;BME280;25155;41.890;23.446;2022-09-13T06:28:32;91701.78;;;12.60;60.81
39455;BME280;25155;41.890;23.446;2022-09-13T06:31:01;91700.66;;;12.66;61.29
39455;BME280;25155;41.890;23.446;2022-09-13T06:33:28;91705.16;;;12.85;60.97
39455;BME280;25155;41.890;23.446;2022-09-13T06:35:59;91703.75;;;12.92;61.11
39455;BME280;25155;41.890;23.446;2022-09-13T06:38:27;91697.28;;;13.04;60.92
39455;BME280;25155;41.890;23.446;2022-09-13T06:41:03;91693.47;;;13.15;60.63
39455;BME280;25155;41.890;23.446;2022-09-13T06:43:31;91697.72;;;13.30;60.18
39455;BME280;25155;41.890;23.446;2022-09-13T06:46:00;91694.75;;;13.37;60.04
39455;BME280;25155;41.890;23.446;2022-09-13T06:48:30;91704.78;;;13.48;59.85
39455;BME280;25155;41.890;23.446;2022-09-13T06:50:59;91699.41;;;13.59;59.91
39455;BME280;25155;41.890;23.446;2022-09-13T06:53:27;91697.31;;;13.75;59.27
39455;BME280;25155;41.890;23.446;2022-09-13T06:56:03;91709.69;;;13.88;59.14
39455;BME280;25155;41.890;23.446;2022-09-13T06:58:31;91712.53;;;14.06;58.30
39455;BME280;25155;41.890;23.446;2022-09-13T07:01:10;91717.13;;;14.14;57.47
39455;BME280;25155;41.890;23.446;2022-09-13T07:03:39;91714.69;;;14.31;58.37
39455;BME280;25155;41.890;23.446;2022-09-13T07:06:09;91708.59;;;14.50;57.92
39455;BME280;25155;41.890;23.446;2022-09-13T07:08:38;91704.44;;;14.63;57.49
39455;BME280;25155;41.890;23.446;2022-09-13T07:11:08;91703.75;;;14.85;56.84
39455;BME280;25155;41.890;23.446;2022-09-13T07:13:37;91699.91;;;15.05;57.65
39455;BME280;25155;41.890;23.446;2022-09-13T07:16:07;91702.56;;;15.27;57.42
39455;BME280;25155;41.890;23.446;2022-09-13T07:18:35;91702.25;;;15.43;55.60
39455;BME280;25155;41.890;23.446;2022-09-13T07:21:04;91691.66;;;15.57;56.40
39455;BME280;25155;41.890;23.446;2022-09-13T07:23:34;91703.38;;;15.73;54.49
39455;BME280;25155;41.890;23.446;2022-09-13T07:26:03;91703.03;;;15.89;54.70
39455;BME280;25155;41.890;23.446;2022-09-13T07:28:34;91702.25;;;16.11;55.92
39455;BME280;25155;41.890;23.446;2022-09-13T07:31:07;91706.38;;;16.34;55.98
39455;BME280;25155;41.890;23.446;2022-09-13T07:33:35;91701.06;;;16.57;56.02
39455;BME280;25155;41.890;23.446;2022-09-13T07:36:03;91701.59;;;16.76;55.48
39455;BME280;25155;41.890;23.446;2022-09-13T07:38:33;91703.22;;;16.95;55.05
39455;BME280;25155;41.890;23.446;2022-09-13T07:41:01;91700.88;;;17.11;54.45
39455;BME280;25155;41.890;23.446;2022-09-13T07:43:33;91700.63;;;17.21;54.11
39455;BME280;25155;41.890;23.446;2022-09-13T07:46:03;91702.34;;;17.34;52.87
39455;BME280;25155;41.890;23.446;2022-09-13T07:48:32;91684.66;;;17.35;53.35
39455;BME280;25155;41.890;23.446;2022-09-13T07:51:02;91700.44;;;17.52;51.77
39455;BME280;25155;41.890;23.446;2022-09-13T07:53:31;91701.06;;;17.67;52.37
39455;BME280;25155;41.890;23.446;2022-09-13T07:56:01;91695.66;;;17.81;51.45
39455;BME280;25155;41.890;23.446;2022-09-13T07:58:29;91666.16;;;17.79;50.80
39455;BME280;25155;41.890;23.446;2022-09-13T08:01:03;91689.59;;;17.98;50.54
39455;BME280;25155;41.890;23.446;2022-09-13T08:03:32;91682.91;;;18.09;48.33
39455;BME280;25155;41.890;23.446;2022-09-13T08:06:00;91688.00;;;18.14;48.62
39455;BME280;25155;41.890;23.446;2022-09-13T08:08:28;91692.16;;;18.24;49.22
39455;BME280;25155;41.890;23.446;2022-09-13T08:10:56;91691.97;;;18.38;49.62
39455;BME280;25155;41.890;23.446;2022-09-13T08:13:24;91693.94;;;18.50;50.05
39455;BME280;25155;41.890;23.446;2022-09-13T08:15:51;91689.09;;;18.60;47.58
39455;BME280;25155;41.890;23.446;2022-09-13T08:18:20;91667.81;;;18.57;48.36
39455;BME280;25155;41.890;23.446;2022-09-13T08:20:48;91699.09;;;18.85;48.84
39455;BME280;25155;41.890;23.446;2022-09-13T08:23:15;91683.31;;;18.97;48.92
39455;BME280;25155;41.890;23.446;2022-09-13T08:25:43;91689.13;;;19.11;46.98
39455;BME280;25155;41.890;23.446;2022-09-13T08:28:14;91681.81;;;19.17;47.12
39455;BME280;25155;41.890;23.446;2022-09-13T08:30:43;91671.41;;;19.33;47.96
39455;BME280;25155;41.890;23.446;2022-09-13T08:33:10;91680.78;;;19.30;45.51
39455;BME280;25155;41.890;23.446;2022-09-13T08:35:40;91658.53;;;19.10;46.44
39455;BME280;25155;41.890;23.446;2022-09-13T08:38:15;91680.31;;;19.07;45.59
39455;BME280;25155;41.890;23.446;2022-09-13T08:40:47;91675.28;;;18.93;46.77
39455;BME280;25155;41.890;23.446;2022-09-13T08:43:22;91684.94;;;18.80;46.78
39455;BME280;25155;41.890;23.446;2022-09-13T08:45:59;91678.41;;;18.78;47.17
39455;BME280;25155;41.890;23.446;2022-09-13T08:48:32;91676.09;;;18.76;46.76
39455;BME280;25155;41.890;23.446;2022-09-13T08:51:04;91693.94;;;18.79;46.53
39455;BME280;25155;41.890;23.446;2022-09-13T08:53:42;91693.47;;;18.86;46.40
39455;BME280;25155;41.890;23.446;2022-09-13T08:56:12;91673.06;;;18.95;46.61
39455;BME280;25155;41.890;23.446;2022-09-13T08:58:55;91688.00;;;18.91;46.98
39455;BME280;25155;41.890;23.446;2022-09-13T09:01:37;91671.41;;;19.12;47.21
39455;BME280;25155;41.890;23.446;2022-09-13T09:04:16;91663.94;;;19.14;46.39
39455;BME280;25155;41.890;23.446;2022-09-13T09:06:52;91667.66;;;19.13;45.11
39455;BME280;25155;41.890;23.446;2022-09-13T09:09:22;91672.59;;;19.23;46.03
39455;BME280;25155;41.890;23.446;2022-09-13T09:11:55;91663.81;;;19.31;45.05
39455;BME280;25155;41.890;23.446;2022-09-13T09:14:30;91663.47;;;19.33;44.87
39455;BME280;25155;41.890;23.446;2022-09-13T09:17:01;91668.09;;;19.45;45.19
39455;BME280;25155;41.890;23.446;2022-09-13T09:19:33;91666.25;;;19.58;44.19
39455;BME280;25155;41.890;23.446;2022-09-13T09:22:10;91654.81;;;19.66;44.05
39455;BME280;25155;41.890;23.446;2022-09-13T09:24:44;91667.84;;;19.71;43.26
39455;BME280;25155;41.890;23.446;2022-09-13T09:27:15;91661.97;;;19.86;43.17
39455;BME280;25155;41.890;23.446;2022-09-13T09:29:43;91654.38;;;19.97;42.54
39455;BME280;25155;41.890;23.446;2022-09-13T09:32:20;91663.25;;;20.01;41.71
39455;BME280;25155;41.890;23.446;2022-09-13T09:34:59;91662.81;;;20.12;40.17
39455;BME280;25155;41.890;23.446;2022-09-13T09:37:36;91661.50;;;20.18;39.97
39455;BME280;25155;41.890;23.446;2022-09-13T09:40:10;91659.84;;;20.13;39.37
39455;BME280;25155;41.890;23.446;2022-09-13T09:42:41;91661.50;;;20.18;40.23
39455;BME280;25155;41.890;23.446;2022-09-13T09:45:24;91659.19;;;20.28;40.85
39455;BME280;25155;41.890;23.446;2022-09-13T09:47:54;91658.47;;;20.53;39.15
39455;BME280;25155;41.890;23.446;2022-09-13T09:50:25;91649.28;;;20.50;39.08
39455;BME280;25155;41.890;23.446;2022-09-13T09:53:00;91673.06;;;20.71;38.82
39455;BME280;25155;41.890;23.446;2022-09-13T09:55:31;91648.56;;;20.74;39.20
39455;BME280;25155;41.890;23.446;2022-09-13T09:58:00;91648.66;;;20.90;37.98
39455;BME280;25155;41.890;23.446;2022-09-13T10:00:31;91649.00;;;20.89;37.64
39455;BME280;25155;41.890;23.446;2022-09-13T10:03:04;91660.34;;;20.77;36.59
39455;BME280;25155;41.890;23.446;2022-09-13T10:05:34;91648.69;;;20.66;36.90
39455;BME280;25155;41.890;23.446;2022-09-13T10:08:04;91644.69;;;20.72;37.25
39455;BME280;25155;41.890;23.446;2022-09-13T10:10:37;91647.09;;;20.77;37.12
39455;BME280;25155;41.890;23.446;2022-09-13T10:13:20;91647.31;;;20.59;36.64
39455;BME280;25155;41.890;23.446;2022-09-13T10:15:51;91652.06;;;20.29;37.07
39455;BME280;25155;41.890;23.446;2022-09-13T10:18:21;91639.16;;;20.52;37.14
39455;BME280;25155;41.890;23.446;2022-09-13T10:21:00;91651.75;;;20.68;36.83
39455;BME280;25155;41.890;23.446;2022-09-13T10:23:30;91653.19;;;20.77;36.83
39455;BME280;25155;41.890;23.446;2022-09-13T10:26:02;91637.94;;;20.87;37.16
39455;BME280;25155;41.890;23.446;2022-09-13T10:28:34;91624.34;;;20.88;36.09
39455;BME280;25155;41.890;23.446;2022-09-13T10:31:04;91643.91;;;20.83;36.54
39455;BME280;25155;41.890;23.446;2022-09-13T10:33:36;91641.25;;;20.96;36.30
39455;BME280;25155;41.890;23.446;2022-09-13T10:36:06;91640.59;;;20.99;36.83
39455;BME280;25155;41.890;23.446;2022-09-13T10:38:40;91643.00;;;21.04;35.96
39455;BME280;25155;41.890;23.446;2022-09-13T10:41:10;91637.16;;;21.11;35.77
39455;BME280;25155;41.890;23.446;2022-09-13T10:43:46;91636.53;;;21.30;36.18
39455;BME280;25155;41.890;23.446;2022-09-13T10:46:21;91637.91;;;21.24;35.44
39455;BME280;25155;41.890;23.446;2022-09-13T10:48:49;91640.75;;;21.31;36.13
39455;BME280;25155;41.890;23.446;2022-09-13T10:51:31;91635.25;;;21.11;35.61
39455;BME280;25155;41.890;23.446;2022-09-13T10:54:17;91635.25;;;21.11;36.99
39455;BME280;25155;41.890;23.446;2022-09-13T10:56:45;91639.22;;;21.17;36.71
39455;BME280;25155;41.890;23.446;2022-09-13T10:59:15;91645.84;;;21.24;37.13
39455;BME280;25155;41.890;23.446;2022-09-13T11:01:55;91636.84;;;21.41;37.07
39455;BME280;25155;41.890;23.446;2022-09-13T11:04:48;91633.78;;;21.26;36.37
39455;BME280;25155;41.890;23.446;2022-09-13T11:07:43;91630.13;;;21.31;37.08
39455;BME280;25155;41.890;23.446;2022-09-13T11:10:20;91634.56;;;21.27;36.82
39455;BME280;25155;41.890;23.446;2022-09-13T11:12:58;91629.38;;;21.30;36.79
39455;BME280;25155;41.890;23.446;2022-09-13T11:15:39;91635.69;;;21.13;36.57
39455;BME280;25155;41.890;23.446;2022-09-13T11:21:15;91614.38;;;21.10;36.36
39455;BME280;25155;41.890;23.446;2022-09-13T11:24:13;91595.28;;;21.04;36.31
39455;BME280;25155;41.890;23.446;2022-09-13T11:26:56;91620.63;;;21.30;35.67
39455;BME280;25155;41.890;23.446;2022-09-13T11:29:44;91602.69;;;21.39;36.43
39455;BME280;25155;41.890;23.446;2022-09-13T11:32:24;91603.38;;;21.48;36.24
39455;BME280;25155;41.890;23.446;2022-09-13T11:35:18;91599.16;;;21.47;35.23
39455;BME280;25155;41.890;23.446;2022-09-13T11:37:59;91607.50;;;21.62;37.06
39455;BME280;25155;41.890;23.446;2022-09-13T11:40:43;91598.13;;;21.96;37.10
39455;BME280;25155;41.890;23.446;2022-09-13T11:43:31;91597.72;;;21.94;36.77
39455;BME280;25155;41.890;23.446;2022-09-13T11:46:08;91599.19;;;21.91;36.33
39455;BME280;25155;41.890;23.446;2022-09-13T11:51:35;91591.69;;;21.81;35.66
39455;BME280;25155;41.890;23.446;2022-09-13T11:54:18;91586.59;;;21.88;36.51
39455;BME280;25155;41.890;23.446;2022-09-13T11:56:51;91587.97;;;21.98;36.30
39455;BME280;25155;41.890;23.446;2022-09-13T11:59:34;91568.84;;;21.92;35.96
39455;BME280;25155;41.890;23.446;2022-09-13T12:02:12;91580.34;;;21.97;35.71
39455;BME280;25155;41.890;23.446;2022-09-13T12:04:46;91576.84;;;22.08;35.93
39455;BME280;25155;41.890;23.446;2022-09-13T12:07:26;91577.25;;;22.10;35.40
39455;BME280;25155;41.890;23.446;2022-09-13T12:10:02;91574.78;;;22.18;34.65
39455;BME280;25155;41.890;23.446;2022-09-13T12:12:34;91589.91;;;22.29;34.77
39455;BME280;25155;41.890;23.446;2022-09-13T12:15:12;91580.88;;;22.34;34.62
39455;BME280;25155;41.890;23.446;2022-09-13T12:17:44;91575.81;;;22.29;34.57
39455;BME280;25155;41.890;23.446;2022-09-13T12:21:46;91584.03;;;22.24;34.35
39455;BME280;25155;41.890;23.446;2022-09-13T12:24:19;91588.50;;;22.36;34.68
39455;BME280;25155;41.890;23.446;2022-09-13T12:26:53;91579.16;;;22.42;33.98
39455;BME280;25155;41.890;23.446;2022-09-13T12:29:27;91572.03;;;22.62;35.21
39455;BME280;25155;41.890;23.446;2022-09-13T12:31:59;91576.91;;;22.76;33.30
39455;BME280;25155;41.890;23.446;2022-09-13T12:34:32;91574.72;;;22.81;33.76
39455;BME280;25155;41.890;23.446;2022-09-13T12:37:21;91580.94;;;22.70;33.29
39455;BME280;25155;41.890;23.446;2022-09-13T12:40:03;91572.09;;;22.65;33.41
39455;BME280;25155;41.890;23.446;2022-09-13T12:46:00;91561.63;;;22.73;33.28
39455;BME280;25155;41.890;23.446;2022-09-13T12:48:51;91557.00;;;22.70;33.70
39455;BME280;25155;41.890;23.446;2022-09-13T12:51:35;91559.63;;;22.50;33.02
39455;BME280;25155;41.890;23.446;2022-09-13T12:54:31;91565.31;;;22.84;33.82
39455;BME280;25155;41.890;23.446;2022-09-13T12:57:15;91566.28;;;22.76;33.16
39455;BME280;25155;41.890;23.446;2022-09-13T13:02:31;91571.88;;;22.90;32.96
39455;BME280;25155;41.890;23.446;2022-09-13T13:05:04;91573.44;;;22.91;32.63
39455;BME280;25155;41.890;23.446;2022-09-13T13:07:34;91565.81;;;22.74;32.80
39455;BME280;25155;41.890;23.446;2022-09-13T13:10:05;91587.56;;;22.44;32.38
39455;BME280;25155;41.890;23.446;2022-09-13T13:12:35;91577.97;;;22.39;33.62
39455;BME280;25155;41.890;23.446;2022-09-13T13:15:04;91570.56;;;22.64;34.16
39455;BME280;25155;41.890;23.446;2022-09-13T13:17:40;91563.91;;;22.90;33.43
39455;BME280;25155;41.890;23.446;2022-09-13T13:23:24;91580.47;;;22.83;32.95
39455;BME280;25155;41.890;23.446;2022-09-13T13:26:06;91592.38;;;22.90;32.96
39455;BME280;25155;41.890;23.446;2022-09-13T13:28:50;91588.59;;;22.55;31.97
39455;BME280;25155;41.890;23.446;2022-09-13T13:31:35;91579.38;;;22.69;31.87
39455;BME280;25155;41.890;23.446;2022-09-13T13:34:30;91569.34;;;22.78;32.35
39455;BME280;25155;41.890;23.446;2022-09-13T13:37:00;91577.72;;;22.80;31.94
39455;BME280;25155;41.890;23.446;2022-09-13T13:39:37;91580.59;;;22.71;31.92
39455;BME280;25155;41.890;23.446;2022-09-13T13:42:23;91572.63;;;22.55;31.83